Accueil
METAR-TAF:

METAR-TAF

Aéroports :

Saint-Yan, France

Aéroport de Saint-Yan

latitude: 46-24-45N, longitude: 004-00-48E, altitude: 244 m

Observation

Le bulletin a été fait il y a 30 minutes, à 22:00 UTC
Vent 5 kt de nord-ouest
Température 2°C
Humidité 93%
Pression 1016 hPa
Visibilité 10 km ou plus
pas de nuages en-dessous de 1500 mètres et pas de cumulonimbus.

METAR: LFLN 272200Z AUTO 31005KT CAVOK 02/01 Q1016 BECMG 02010KT

Heure: 00:30 (22:30 UTC)

Prévision

Le bulletin a été fait il y a 5 heures et 30 minutes, à 17:00 UTC
Prévision valable du 27 à 18 UTC au 28 à 03 UTC
Vent 10 kt de nord/nord-est
Visibilité 10 km ou plus
Quelques nuages à une hauteur de 3000 ft
Nuages fragmentés à une hauteur de 5000 ft
Probabilité 40% :
Temporairement
du 27 à 18 UTC au 27 à 21 UTC
averses de pluie

TAF: LFLN 271700Z 2718/2803 02010KT 9999 FEW030 BKN050 PROB40 TEMPO 2718/2721 SHRA

Observations et prévisions météorologiques de plus de 4000 aéroports (messages METAR et TAF).

Les stations disponibles sont représentées par des disques jaunes et rouges sur la carte.

Passer la souris dessus pour voir le nom de la station.

Cliquer dessus pour voir les observations et prévisions météorologiques.

Pour changer de carte: cliquez sur les boutons verts avec une croix noire pour zoomer, sur le bouton vert avec un tiret pour effectuer un zoom arrière, ou sur les flèches vertes pour les cartes adjacentes.


METAR-TAF: